Mountain Rest, SC

7:49 AM EST on March 05, 2015 (GMT -0500)
Oconee County Regional | Change Station
CLOSE
Current Station
Airport
Location: Clemson,
Elevation: 892 ft
Nearby Weather Stations

Elev 892 ft 34.67 °N, 82.88 °W | Updated 55 minutes ago

Overcast
Overcast
66 °F
Feels Like 66 °F
N
6
Wind Variable Wind from Variable

Today
High -- | Low -- °F
--% Chance of Precip.
Yesterday
High -- | Low -- °F
Precip. -- in
6:57 AM 6:32 PM
Full, 100% visible
Pressure 29.83 in
Visibility 9.0 miles
Clouds Overcast 600 ft
Dew Point 62 °F
Humidity 87%
Rainfall 0.05 in
Snow Depth Not available.
UV 0 out of 12
Pollen 1.00 out of 12
Air Quality Not available.
Flu Activity Not available.
METAR KCEU 051154Z AUTO VRB05KT 9SM OVC006 19/17 A2985 RMK AO2 RAE52 CIG 005V011 SLP100 P0002 60004 70007 T01890167 10200 20183 58002

More Conditions Fewer Conditions

Pressure 29.83 in
Visibility 9.0 miles
Clouds Overcast 600 ft
Dew Point 62 °F
Humidity 87%
Rainfall 0.05 in
Snow Depth Not available.
UV 0 out of 12
Pollen 1.00 out of 12
Air Quality Not available.
Flu Activity Not available.
METAR KCEU 051154Z AUTO VRB05KT 9SM OVC006 19/17 A2985 RMK AO2 RAE52 CIG 005V011 SLP100 P0002 60004 70007 T01890167 10200 20183 58002

More Conditions Fewer Conditions

10-Day Weather Forecast

Almanac

Astronomy

Mar. 05, 2015 Rise Set
Actual Time
Civil Twilight
Nautical Twilight
Astronomical Twilight
Moon
Length of Visible Light
Length of Day
Tomorrow will be .
, % of the Moon is Illuminated

Today's Extremes

State Highs State Lows

Community

WunderPhotos

Upload Photos

1,802,737 photos uploaded!

WunderBlogs® & News

Nearby

Air Quality

  Air Quality AQ Index Pollutant
Not available.

Snow Depth

Station Depth Elevation

Earthquake Activity

City Distance Mag. Time & Date
Minimum magnitude displayed is 2.5.

Coastal Water Temperatures

Place Temperature

Nearby Weather Stations